sensor_id;sensor_type;location;lat;lon;timestamp;temperature;humidity
56308;DHT22;42217;50.422;7.210;2022-11-25T00:00:26;7.10;99.90
56308;DHT22;42217;50.422;7.210;2022-11-25T00:02:52;7.10;99.90
56308;DHT22;42217;50.422;7.210;2022-11-25T00:05:17;7.00;99.90
56308;DHT22;42217;50.422;7.210;2022-11-25T00:07:43;7.00;99.90
56308;DHT22;42217;50.422;7.210;2022-11-25T00:10:09;6.90;99.90
56308;DHT22;42217;50.422;7.210;2022-11-25T00:12:35;6.90;99.90
56308;DHT22;42217;50.422;7.210;2022-11-25T00:15:00;6.90;99.90
56308;DHT22;42217;50.422;7.210;2022-11-25T00:17:26;6.90;99.90
56308;DHT22;42217;50.422;7.210;2022-11-25T00:19:52;6.90;99.90
56308;DHT22;42217;50.422;7.210;2022-11-25T00:22:17;6.70;99.90
56308;DHT22;42217;50.422;7.210;2022-11-25T00:24:43;6.80;99.90
56308;DHT22;42217;50.422;7.210;2022-11-25T00:27:08;6.80;99.90
56308;DHT22;42217;50.422;7.210;2022-11-25T00:29:34;6.80;99.90
56308;DHT22;42217;50.422;7.210;2022-11-25T00:32:00;6.80;99.90
56308;DHT22;42217;50.422;7.210;2022-11-25T00:34:26;6.80;99.90
56308;DHT22;42217;50.422;7.210;2022-11-25T00:36:51;6.70;99.90
56308;DHT22;42217;50.422;7.210;2022-11-25T00:39:18;6.80;99.90
56308;DHT22;42217;50.422;7.210;2022-11-25T00:41:45;6.70;99.90
56308;DHT22;42217;50.422;7.210;2022-11-25T00:44:30;6.70;99.90
56308;DHT22;42217;50.422;7.210;2022-11-25T00:49:40;6.60;99.90
56308;DHT22;42217;50.422;7.210;2022-11-25T00:52:07;6.60;99.90
56308;DHT22;42217;50.422;7.210;2022-11-25T00:54:33;6.50;99.90
56308;DHT22;42217;50.422;7.210;2022-11-25T00:56:59;6.50;99.90
56308;DHT22;42217;50.422;7.210;2022-11-25T00:59:25;6.60;99.90
56308;DHT22;42217;50.422;7.210;2022-11-25T01:01:51;6.60;99.90
56308;DHT22;42217;50.422;7.210;2022-11-25T01:04:17;6.60;99.90
56308;DHT22;42217;50.422;7.210;2022-11-25T01:06:43;6.60;99.90
56308;DHT22;42217;50.422;7.210;2022-11-25T01:09:10;6.60;99.90
56308;DHT22;42217;50.422;7.210;2022-11-25T01:11:36;6.60;99.90
56308;DHT22;42217;50.422;7.210;2022-11-25T01:14:02;6.70;99.90
56308;DHT22;42217;50.422;7.210;2022-11-25T01:16:28;6.70;99.90
56308;DHT22;42217;50.422;7.210;2022-11-25T01:18:54;6.70;99.90
56308;DHT22;42217;50.422;7.210;2022-11-25T01:21:23;6.70;99.90
56308;DHT22;42217;50.422;7.210;2022-11-25T01:23:49;6.80;99.90
56308;DHT22;42217;50.422;7.210;2022-11-25T01:26:21;6.80;99.90
56308;DHT22;42217;50.422;7.210;2022-11-25T01:28:48;6.80;99.90
56308;DHT22;42217;50.422;7.210;2022-11-25T01:31:15;7.00;99.90
56308;DHT22;42217;50.422;7.210;2022-11-25T01:33:41;7.10;99.90
56308;DHT22;42217;50.422;7.210;2022-11-25T01:36:10;7.10;99.90
56308;DHT22;42217;50.422;7.210;2022-11-25T01:38:36;7.10;99.90
56308;DHT22;42217;50.422;7.210;2022-11-25T01:41:03;7.10;99.90
56308;DHT22;42217;50.422;7.210;2022-11-25T01:43:29;7.20;99.90
56308;DHT22;42217;50.422;7.210;2022-11-25T01:49:02;7.30;99.90
56308;DHT22;42217;50.422;7.210;2022-11-25T01:53:56;7.30;99.90
56308;DHT22;42217;50.422;7.210;2022-11-25T01:56:24;7.40;99.90
56308;DHT22;42217;50.422;7.210;2022-11-25T01:58:50;7.40;99.90
56308;DHT22;42217;50.422;7.210;2022-11-25T02:01:16;7.30;99.90
56308;DHT22;42217;50.422;7.210;2022-11-25T02:03:46;7.30;99.90
56308;DHT22;42217;50.422;7.210;2022-11-25T02:06:21;7.20;99.90
56308;DHT22;42217;50.422;7.210;2022-11-25T02:08:50;7.20;99.90
56308;DHT22;42217;50.422;7.210;2022-11-25T02:11:18;7.10;99.90
56308;DHT22;42217;50.422;7.210;2022-11-25T02:13:47;7.00;99.90
56308;DHT22;42217;50.422;7.210;2022-11-25T02:16:13;7.00;99.90
56308;DHT22;42217;50.422;7.210;2022-11-25T02:18:39;6.80;99.90
56308;DHT22;42217;50.422;7.210;2022-11-25T02:21:05;6.70;99.90
56308;DHT22;42217;50.422;7.210;2022-11-25T02:24:04;6.60;99.90
56308;DHT22;42217;50.422;7.210;2022-11-25T02:26:33;6.60;99.90
56308;DHT22;42217;50.422;7.210;2022-11-25T02:28:59;6.50;99.90
56308;DHT22;42217;50.422;7.210;2022-11-25T02:31:25;6.50;99.90
56308;DHT22;42217;50.422;7.210;2022-11-25T02:33:51;6.40;99.90
56308;DHT22;42217;50.422;7.210;2022-11-25T02:36:20;6.40;99.90
56308;DHT22;42217;50.422;7.210;2022-11-25T02:38:52;6.40;99.90
56308;DHT22;42217;50.422;7.210;2022-11-25T02:43:45;6.40;99.90
56308;DHT22;42217;50.422;7.210;2022-11-25T02:46:14;6.40;99.90
56308;DHT22;42217;50.422;7.210;2022-11-25T02:48:41;6.40;99.90
56308;DHT22;42217;50.422;7.210;2022-11-25T02:51:09;6.40;99.90
56308;DHT22;42217;50.422;7.210;2022-11-25T02:53:36;6.50;99.90
56308;DHT22;42217;50.422;7.210;2022-11-25T02:56:02;6.40;99.90
56308;DHT22;42217;50.422;7.210;2022-11-25T02:58:28;6.40;99.90
56308;DHT22;42217;50.422;7.210;2022-11-25T03:00:54;6.40;99.90
56308;DHT22;42217;50.422;7.210;2022-11-25T03:03:19;6.40;99.90
56308;DHT22;42217;50.422;7.210;2022-11-25T03:05:45;6.40;99.90
56308;DHT22;42217;50.422;7.210;2022-11-25T03:08:11;6.40;99.90
56308;DHT22;42217;50.422;7.210;2022-11-25T03:10:37;6.30;99.90
56308;DHT22;42217;50.422;7.210;2022-11-25T03:13:04;6.30;99.90
56308;DHT22;42217;50.422;7.210;2022-11-25T03:15:30;6.30;99.90
56308;DHT22;42217;50.422;7.210;2022-11-25T03:17:56;6.30;99.90
56308;DHT22;42217;50.422;7.210;2022-11-25T03:20:21;6.30;99.90
56308;DHT22;42217;50.422;7.210;2022-11-25T03:22:47;6.40;99.90
56308;DHT22;42217;50.422;7.210;2022-11-25T03:25:14;6.40;99.90
56308;DHT22;42217;50.422;7.210;2022-11-25T03:27:40;6.40;99.90
56308;DHT22;42217;50.422;7.210;2022-11-25T03:30:13;6.50;99.90
56308;DHT22;42217;50.422;7.210;2022-11-25T03:32:38;6.60;99.90
56308;DHT22;42217;50.422;7.210;2022-11-25T03:35:04;6.60;99.90
56308;DHT22;42217;50.422;7.210;2022-11-25T03:37:30;6.70;99.90
56308;DHT22;42217;50.422;7.210;2022-11-25T03:39:56;6.70;99.90
56308;DHT22;42217;50.422;7.210;2022-11-25T03:42:21;6.70;99.90
56308;DHT22;42217;50.422;7.210;2022-11-25T03:44:47;6.80;99.90
56308;DHT22;42217;50.422;7.210;2022-11-25T03:47:13;6.80;99.90
56308;DHT22;42217;50.422;7.210;2022-11-25T03:49:39;6.80;99.90
56308;DHT22;42217;50.422;7.210;2022-11-25T03:52:04;6.90;99.90
56308;DHT22;42217;50.422;7.210;2022-11-25T03:54:30;6.90;99.90
56308;DHT22;42217;50.422;7.210;2022-11-25T03:56:56;6.90;99.90
56308;DHT22;42217;50.422;7.210;2022-11-25T03:59:22;7.00;99.90
56308;DHT22;42217;50.422;7.210;2022-11-25T04:01:48;7.10;99.90
56308;DHT22;42217;50.422;7.210;2022-11-25T04:04:13;7.10;99.90
56308;DHT22;42217;50.422;7.210;2022-11-25T04:06:39;7.00;99.90
56308;DHT22;42217;50.422;7.210;2022-11-25T04:09:09;7.00;99.90
56308;DHT22;42217;50.422;7.210;2022-11-25T04:11:36;6.90;99.90
56308;DHT22;42217;50.422;7.210;2022-11-25T04:14:20;6.90;99.90
56308;DHT22;42217;50.422;7.210;2022-11-25T04:16:46;7.00;99.90
56308;DHT22;42217;50.422;7.210;2022-11-25T04:19:12;6.90;99.90
56308;DHT22;42217;50.422;7.210;2022-11-25T04:21:39;6.90;99.90
56308;DHT22;42217;50.422;7.210;2022-11-25T04:24:05;7.00;99.90
56308;DHT22;42217;50.422;7.210;2022-11-25T04:26:31;7.10;99.90
56308;DHT22;42217;50.422;7.210;2022-11-25T04:28:57;7.20;99.90
56308;DHT22;42217;50.422;7.210;2022-11-25T04:31:23;7.20;99.90
56308;DHT22;42217;50.422;7.210;2022-11-25T04:33:48;7.20;99.90
56308;DHT22;42217;50.422;7.210;2022-11-25T04:36:14;7.20;99.90
56308;DHT22;42217;50.422;7.210;2022-11-25T04:38:40;7.20;99.90
56308;DHT22;42217;50.422;7.210;2022-11-25T04:41:06;7.20;99.90
56308;DHT22;42217;50.422;7.210;2022-11-25T04:43:31;7.20;99.90
56308;DHT22;42217;50.422;7.210;2022-11-25T04:45:57;7.20;99.90
56308;DHT22;42217;50.422;7.210;2022-11-25T04:48:23;7.10;99.90
56308;DHT22;42217;50.422;7.210;2022-11-25T04:50:49;7.10;99.90
56308;DHT22;42217;50.422;7.210;2022-11-25T04:53:15;7.20;99.90
56308;DHT22;42217;50.422;7.210;2022-11-25T04:55:41;7.20;99.90
56308;DHT22;42217;50.422;7.210;2022-11-25T04:58:10;7.20;99.90
56308;DHT22;42217;50.422;7.210;2022-11-25T05:00:36;7.20;99.90
56308;DHT22;42217;50.422;7.210;2022-11-25T05:03:02;7.20;99.90
56308;DHT22;42217;50.422;7.210;2022-11-25T05:05:27;7.30;99.90
56308;DHT22;42217;50.422;7.210;2022-11-25T05:07:53;7.20;99.90
56308;DHT22;42217;50.422;7.210;2022-11-25T05:10:19;7.30;99.90
56308;DHT22;42217;50.422;7.210;2022-11-25T05:12:45;7.30;99.90
56308;DHT22;42217;50.422;7.210;2022-11-25T05:15:11;7.30;99.90
56308;DHT22;42217;50.422;7.210;2022-11-25T05:17:37;7.40;99.90
56308;DHT22;42217;50.422;7.210;2022-11-25T05:20:03;7.50;99.90
56308;DHT22;42217;50.422;7.210;2022-11-25T05:22:31;7.60;99.90
56308;DHT22;42217;50.422;7.210;2022-11-25T05:24:56;7.50;99.90
56308;DHT22;42217;50.422;7.210;2022-11-25T05:27:22;7.50;99.90
56308;DHT22;42217;50.422;7.210;2022-11-25T05:29:49;7.60;99.90
56308;DHT22;42217;50.422;7.210;2022-11-25T05:32:15;7.70;99.90
56308;DHT22;42217;50.422;7.210;2022-11-25T05:34:41;7.60;99.90
56308;DHT22;42217;50.422;7.210;2022-11-25T05:37:07;7.70;99.90
56308;DHT22;42217;50.422;7.210;2022-11-25T05:39:33;7.80;99.90
56308;DHT22;42217;50.422;7.210;2022-11-25T05:42:00;7.80;99.90
56308;DHT22;42217;50.422;7.210;2022-11-25T05:44:25;7.70;99.90
56308;DHT22;42217;50.422;7.210;2022-11-25T05:46:51;7.70;99.90
56308;DHT22;42217;50.422;7.210;2022-11-25T05:49:17;7.70;99.90
56308;DHT22;42217;50.422;7.210;2022-11-25T05:51:44;7.50;99.90
56308;DHT22;42217;50.422;7.210;2022-11-25T05:54:10;7.40;99.90
56308;DHT22;42217;50.422;7.210;2022-11-25T05:56:36;7.40;99.90
56308;DHT22;42217;50.422;7.210;2022-11-25T05:59:02;7.30;99.90
56308;DHT22;42217;50.422;7.210;2022-11-25T06:01:28;7.30;99.90
56308;DHT22;42217;50.422;7.210;2022-11-25T06:03:54;7.30;99.90
56308;DHT22;42217;50.422;7.210;2022-11-25T06:06:20;7.20;99.90
56308;DHT22;42217;50.422;7.210;2022-11-25T06:08:46;7.20;99.90
56308;DHT22;42217;50.422;7.210;2022-11-25T06:11:16;7.20;99.90
56308;DHT22;42217;50.422;7.210;2022-11-25T06:13:42;7.10;99.90
56308;DHT22;42217;50.422;7.210;2022-11-25T06:16:21;7.10;99.90
56308;DHT22;42217;50.422;7.210;2022-11-25T06:18:47;7.10;99.90
56308;DHT22;42217;50.422;7.210;2022-11-25T06:21:13;7.20;99.90
56308;DHT22;42217;50.422;7.210;2022-11-25T06:23:39;7.10;99.90
56308;DHT22;42217;50.422;7.210;2022-11-25T06:26:06;7.10;99.90
56308;DHT22;42217;50.422;7.210;2022-11-25T06:28:33;7.10;99.90
56308;DHT22;42217;50.422;7.210;2022-11-25T06:31:10;7.10;99.90
56308;DHT22;42217;50.422;7.210;2022-11-25T06:33:36;7.10;99.90
56308;DHT22;42217;50.422;7.210;2022-11-25T06:36:06;7.10;99.90
56308;DHT22;42217;50.422;7.210;2022-11-25T06:38:33;7.10;99.90
56308;DHT22;42217;50.422;7.210;2022-11-25T06:41:04;7.10;99.90
56308;DHT22;42217;50.422;7.210;2022-11-25T06:43:30;7.10;99.90
56308;DHT22;42217;50.422;7.210;2022-11-25T06:46:07;7.10;99.90
56308;DHT22;42217;50.422;7.210;2022-11-25T06:48:33;7.10;99.90
56308;DHT22;42217;50.422;7.210;2022-11-25T06:51:04;7.10;99.90
56308;DHT22;42217;50.422;7.210;2022-11-25T06:53:31;7.20;99.90
56308;DHT22;42217;50.422;7.210;2022-11-25T06:58:34;7.10;99.90
56308;DHT22;42217;50.422;7.210;2022-11-25T07:01:11;7.10;99.90
56308;DHT22;42217;50.422;7.210;2022-11-25T07:03:37;7.10;99.90
56308;DHT22;42217;50.422;7.210;2022-11-25T07:06:03;6.90;99.90
56308;DHT22;42217;50.422;7.210;2022-11-25T07:08:29;6.90;99.90
56308;DHT22;42217;50.422;7.210;2022-11-25T07:11:00;6.90;99.90
56308;DHT22;42217;50.422;7.210;2022-11-25T07:13:26;7.00;99.90
56308;DHT22;42217;50.422;7.210;2022-11-25T07:15:51;7.10;99.90
56308;DHT22;42217;50.422;7.210;2022-11-25T07:18:17;7.00;99.90
56308;DHT22;42217;50.422;7.210;2022-11-25T07:20:43;7.00;99.90
56308;DHT22;42217;50.422;7.210;2022-11-25T07:23:08;7.00;99.90
56308;DHT22;42217;50.422;7.210;2022-11-25T07:25:34;7.10;99.90
56308;DHT22;42217;50.422;7.210;2022-11-25T07:28:00;7.10;99.90
56308;DHT22;42217;50.422;7.210;2022-11-25T07:30:25;7.20;99.90
56308;DHT22;42217;50.422;7.210;2022-11-25T07:32:51;7.30;99.90
56308;DHT22;42217;50.422;7.210;2022-11-25T07:35:17;7.30;99.90
56308;DHT22;42217;50.422;7.210;2022-11-25T07:37:42;7.30;99.90
56308;DHT22;42217;50.422;7.210;2022-11-25T07:40:08;7.40;99.90
56308;DHT22;42217;50.422;7.210;2022-11-25T07:42:34;7.40;99.90
56308;DHT22;42217;50.422;7.210;2022-11-25T07:45:00;7.50;99.90
56308;DHT22;42217;50.422;7.210;2022-11-25T07:47:25;7.40;99.90
56308;DHT22;42217;50.422;7.210;2022-11-25T07:49:51;7.40;99.90
56308;DHT22;42217;50.422;7.210;2022-11-25T07:52:17;7.40;99.90
56308;DHT22;42217;50.422;7.210;2022-11-25T07:54:44;7.40;99.90
56308;DHT22;42217;50.422;7.210;2022-11-25T07:57:10;7.40;99.90
56308;DHT22;42217;50.422;7.210;2022-11-25T07:59:35;7.30;99.90
56308;DHT22;42217;50.422;7.210;2022-11-25T08:02:05;7.30;99.90
56308;DHT22;42217;50.422;7.210;2022-11-25T08:04:33;7.20;99.90
56308;DHT22;42217;50.422;7.210;2022-11-25T08:06:59;7.10;99.90
56308;DHT22;42217;50.422;7.210;2022-11-25T08:09:24;7.10;99.90
56308;DHT22;42217;50.422;7.210;2022-11-25T08:11:51;7.10;99.90
56308;DHT22;42217;50.422;7.210;2022-11-25T08:14:17;7.10;99.90
56308;DHT22;42217;50.422;7.210;2022-11-25T08:16:43;7.00;99.90
56308;DHT22;42217;50.422;7.210;2022-11-25T08:19:11;6.90;99.90
56308;DHT22;42217;50.422;7.210;2022-11-25T08:21:38;7.00;99.90
56308;DHT22;42217;50.422;7.210;2022-11-25T08:24:04;7.30;99.90
56308;DHT22;42217;50.422;7.210;2022-11-25T08:26:32;7.40;99.90
56308;DHT22;42217;50.422;7.210;2022-11-25T08:29:01;7.60;99.90
56308;DHT22;42217;50.422;7.210;2022-11-25T08:31:32;7.60;99.90
56308;DHT22;42217;50.422;7.210;2022-11-25T08:33:58;7.70;99.90
56308;DHT22;42217;50.422;7.210;2022-11-25T08:36:26;7.80;99.90
56308;DHT22;42217;50.422;7.210;2022-11-25T08:38:54;8.00;99.90
56308;DHT22;42217;50.422;7.210;2022-11-25T08:41:29;8.20;99.90
56308;DHT22;42217;50.422;7.210;2022-11-25T08:43:56;8.30;99.90
56308;DHT22;42217;50.422;7.210;2022-11-25T08:46:25;8.30;99.90
56308;DHT22;42217;50.422;7.210;2022-11-25T08:48:51;8.30;99.90
56308;DHT22;42217;50.422;7.210;2022-11-25T08:51:23;8.30;99.90
56308;DHT22;42217;50.422;7.210;2022-11-25T08:53:49;8.20;99.90
56308;DHT22;42217;50.422;7.210;2022-11-25T08:56:19;8.20;99.90
56308;DHT22;42217;50.422;7.210;2022-11-25T08:58:46;8.10;99.90
56308;DHT22;42217;50.422;7.210;2022-11-25T09:01:13;8.20;99.90
56308;DHT22;42217;50.422;7.210;2022-11-25T09:03:41;8.20;99.90
56308;DHT22;42217;50.422;7.210;2022-11-25T09:06:08;8.20;99.90
56308;DHT22;42217;50.422;7.210;2022-11-25T09:08:35;8.30;99.90
56308;DHT22;42217;50.422;7.210;2022-11-25T09:11:02;8.30;99.90
56308;DHT22;42217;50.422;7.210;2022-11-25T09:13:27;8.30;99.90
56308;DHT22;42217;50.422;7.210;2022-11-25T09:15:53;8.40;99.90
56308;DHT22;42217;50.422;7.210;2022-11-25T09:18:19;8.40;99.90
56308;DHT22;42217;50.422;7.210;2022-11-25T09:20:50;8.40;99.90
56308;DHT22;42217;50.422;7.210;2022-11-25T09:23:16;8.50;99.90
56308;DHT22;42217;50.422;7.210;2022-11-25T09:25:41;8.50;99.90
56308;DHT22;42217;50.422;7.210;2022-11-25T09:28:14;8.60;99.90
56308;DHT22;42217;50.422;7.210;2022-11-25T09:30:40;8.60;99.90
56308;DHT22;42217;50.422;7.210;2022-11-25T09:33:05;8.70;99.90
56308;DHT22;42217;50.422;7.210;2022-11-25T09:35:31;8.60;99.90
56308;DHT22;42217;50.422;7.210;2022-11-25T09:37:57;8.80;99.90
56308;DHT22;42217;50.422;7.210;2022-11-25T09:40:29;8.70;99.90
56308;DHT22;42217;50.422;7.210;2022-11-25T09:43:16;8.80;99.90
56308;DHT22;42217;50.422;7.210;2022-11-25T10:00:00;8.80;99.90
56308;DHT22;42217;50.422;7.210;2022-11-25T10:02:31;8.90;99.90
56308;DHT22;42217;50.422;7.210;2022-11-25T10:07:35;8.90;99.90
56308;DHT22;42217;50.422;7.210;2022-11-25T10:10:04;9.00;99.90
56308;DHT22;42217;50.422;7.210;2022-11-25T10:12:37;9.00;99.90
56308;DHT22;42217;50.422;7.210;2022-11-25T10:15:22;9.00;99.90
56308;DHT22;42217;50.422;7.210;2022-11-25T10:17:59;9.00;99.90
56308;DHT22;42217;50.422;7.210;2022-11-25T10:20:33;9.00;99.90
56308;DHT22;42217;50.422;7.210;2022-11-25T10:23:00;9.10;99.90
56308;DHT22;42217;50.422;7.210;2022-11-25T10:25:30;9.10;99.90
56308;DHT22;42217;50.422;7.210;2022-11-25T10:28:02;9.10;99.90
56308;DHT22;42217;50.422;7.210;2022-11-25T10:30:41;9.00;99.90
56308;DHT22;42217;50.422;7.210;2022-11-25T10:41:02;9.10;99.90
56308;DHT22;42217;50.422;7.210;2022-11-25T10:43:28;9.10;99.90
56308;DHT22;42217;50.422;7.210;2022-11-25T10:51:42;9.20;99.90
56308;DHT22;42217;50.422;7.210;2022-11-25T10:54:27;9.30;99.90
56308;DHT22;42217;50.422;7.210;2022-11-25T10:56:59;9.30;99.90
56308;DHT22;42217;50.422;7.210;2022-11-25T10:59:37;9.40;99.90
56308;DHT22;42217;50.422;7.210;2022-11-25T11:02:15;9.40;99.90
56308;DHT22;42217;50.422;7.210;2022-11-25T11:05:00;9.40;99.90
56308;DHT22;42217;50.422;7.210;2022-11-25T11:07:30;9.50;99.90
56308;DHT22;42217;50.422;7.210;2022-11-25T11:10:26;9.50;99.90
56308;DHT22;42217;50.422;7.210;2022-11-25T11:12:57;9.50;99.90
56308;DHT22;42217;50.422;7.210;2022-11-25T11:17:58;9.50;99.90
56308;DHT22;42217;50.422;7.210;2022-11-25T11:20:30;9.60;99.90
56308;DHT22;42217;50.422;7.210;2022-11-25T11:23:13;9.70;99.90
56308;DHT22;42217;50.422;7.210;2022-11-25T11:25:43;9.70;99.90
56308;DHT22;42217;50.422;7.210;2022-11-25T11:36:20;9.60;99.90
56308;DHT22;42217;50.422;7.210;2022-11-25T11:47:10;9.50;99.90
56308;DHT22;42217;50.422;7.210;2022-11-25T11:54:45;9.40;99.90
56308;DHT22;42217;50.422;7.210;2022-11-25T11:58:27;9.50;99.90
56308;DHT22;42217;50.422;7.210;2022-11-25T12:00:19;9.50;99.90
56308;DHT22;42217;50.422;7.210;2022-11-25T12:03:13;9.60;99.90
56308;DHT22;42217;50.422;7.210;2022-11-25T12:05:41;9.60;99.90
56308;DHT22;42217;50.422;7.210;2022-11-25T12:08:14;9.60;99.90
56308;DHT22;42217;50.422;7.210;2022-11-25T12:11:10;9.60;99.90
56308;DHT22;42217;50.422;7.210;2022-11-25T12:13:52;9.70;99.90
56308;DHT22;42217;50.422;7.210;2022-11-25T12:16:32;9.70;99.90
56308;DHT22;42217;50.422;7.210;2022-11-25T12:19:19;9.70;99.90
56308;DHT22;42217;50.422;7.210;2022-11-25T12:27:08;9.70;99.90
56308;DHT22;42217;50.422;7.210;2022-11-25T12:30:07;9.70;99.90
56308;DHT22;42217;50.422;7.210;2022-11-25T12:41:00;9.70;99.90
56308;DHT22;42217;50.422;7.210;2022-11-25T12:46:35;9.70;99.90
56308;DHT22;42217;50.422;7.210;2022-11-25T12:49:16;9.70;99.90
56308;DHT22;42217;50.422;7.210;2022-11-25T12:54:55;9.80;99.90
56308;DHT22;42217;50.422;7.210;2022-11-25T13:13:31;10.20;99.90
56308;DHT22;42217;50.422;7.210;2022-11-25T13:15:59;10.00;99.90
56308;DHT22;42217;50.422;7.210;2022-11-25T13:18:29;9.80;99.90
56308;DHT22;42217;50.422;7.210;2022-11-25T13:20:55;9.70;99.90
56308;DHT22;42217;50.422;7.210;2022-11-25T13:28:59;10.00;99.90
56308;DHT22;42217;50.422;7.210;2022-11-25T13:31:34;10.00;99.90
56308;DHT22;42217;50.422;7.210;2022-11-25T13:36:46;10.10;99.90
56308;DHT22;42217;50.422;7.210;2022-11-25T13:39:15;10.00;99.90
56308;DHT22;42217;50.422;7.210;2022-11-25T13:41:46;10.10;99.90
56308;DHT22;42217;50.422;7.210;2022-11-25T13:46:44;10.50;99.90
56308;DHT22;42217;50.422;7.210;2022-11-25T13:51:53;10.50;99.90
56308;DHT22;42217;50.422;7.210;2022-11-25T13:54:24;10.60;99.90
56308;DHT22;42217;50.422;7.210;2022-11-25T13:57:00;10.60;99.90
56308;DHT22;42217;50.422;7.210;2022-11-25T14:10:24;10.70;99.90
56308;DHT22;42217;50.422;7.210;2022-11-25T14:13:02;10.60;99.90
56308;DHT22;42217;50.422;7.210;2022-11-25T14:15:50;10.50;99.90
56308;DHT22;42217;50.422;7.210;2022-11-25T14:26:42;10.30;99.90
56308;DHT22;42217;50.422;7.210;2022-11-25T14:34:53;10.20;99.90
56308;DHT22;42217;50.422;7.210;2022-11-25T14:37:27;10.50;99.90
56308;DHT22;42217;50.422;7.210;2022-11-25T14:39:58;10.30;99.90
56308;DHT22;42217;50.422;7.210;2022-11-25T14:42:30;10.20;99.90
56308;DHT22;42217;50.422;7.210;2022-11-25T14:44:57;10.10;99.90
56308;DHT22;42217;50.422;7.210;2022-11-25T14:47:29;9.90;99.90
56308;DHT22;42217;50.422;7.210;2022-11-25T14:49:56;9.80;99.90
56308;DHT22;42217;50.422;7.210;2022-11-25T14:52:29;9.60;99.90
56308;DHT22;42217;50.422;7.210;2022-11-25T14:54:57;9.50;99.90
56308;DHT22;42217;50.422;7.210;2022-11-25T14:57:26;9.20;99.90
56308;DHT22;42217;50.422;7.210;2022-11-25T14:59:56;9.20;99.90
56308;DHT22;42217;50.422;7.210;2022-11-25T15:02:28;8.90;99.90
56308;DHT22;42217;50.422;7.210;2022-11-25T15:05:24;8.80;99.90
56308;DHT22;42217;50.422;7.210;2022-11-25T15:08:00;8.80;99.90
56308;DHT22;42217;50.422;7.210;2022-11-25T15:13:38;8.70;99.90
56308;DHT22;42217;50.422;7.210;2022-11-25T15:18:37;8.80;99.90
56308;DHT22;42217;50.422;7.210;2022-11-25T15:21:05;8.80;99.90
56308;DHT22;42217;50.422;7.210;2022-11-25T15:23:36;8.80;99.90
56308;DHT22;42217;50.422;7.210;2022-11-25T15:26:03;8.80;99.90
56308;DHT22;42217;50.422;7.210;2022-11-25T15:28:34;8.80;99.90
56308;DHT22;42217;50.422;7.210;2022-11-25T15:31:06;8.70;99.90
56308;DHT22;42217;50.422;7.210;2022-11-25T15:33:32;8.80;99.90
56308;DHT22;42217;50.422;7.210;2022-11-25T15:35:58;8.60;99.90
56308;DHT22;42217;50.422;7.210;2022-11-25T15:38:37;8.40;99.90
56308;DHT22;42217;50.422;7.210;2022-11-25T15:41:05;8.30;99.90
56308;DHT22;42217;50.422;7.210;2022-11-25T15:43:38;8.20;99.90
56308;DHT22;42217;50.422;7.210;2022-11-25T15:46:06;8.10;99.90
56308;DHT22;42217;50.422;7.210;2022-11-25T15:48:37;7.90;99.90
56308;DHT22;42217;50.422;7.210;2022-11-25T15:51:13;7.90;99.90
56308;DHT22;42217;50.422;7.210;2022-11-25T15:53:42;8.00;99.90
56308;DHT22;42217;50.422;7.210;2022-11-25T15:56:14;7.70;99.90
56308;DHT22;42217;50.422;7.210;2022-11-25T15:58:43;7.40;99.90
56308;DHT22;42217;50.422;7.210;2022-11-25T16:03:45;7.20;99.90
56308;DHT22;42217;50.422;7.210;2022-11-25T16:06:25;7.50;99.90
56308;DHT22;42217;50.422;7.210;2022-11-25T16:08:54;7.70;99.90
56308;DHT22;42217;50.422;7.210;2022-11-25T16:11:20;7.60;99.90
56308;DHT22;42217;50.422;7.210;2022-11-25T16:13:51;7.40;99.90
56308;DHT22;42217;50.422;7.210;2022-11-25T16:21:35;6.70;99.90
56308;DHT22;42217;50.422;7.210;2022-11-25T16:26:52;6.80;99.90
56308;DHT22;42217;50.422;7.210;2022-11-25T16:29:30;6.90;99.90
56308;DHT22;42217;50.422;7.210;2022-11-25T16:31:57;7.00;99.90
56308;DHT22;42217;50.422;7.210;2022-11-25T16:34:24;6.90;99.90
56308;DHT22;42217;50.422;7.210;2022-11-25T16:36:51;6.90;99.90
56308;DHT22;42217;50.422;7.210;2022-11-25T16:39:17;6.80;99.90
56308;DHT22;42217;50.422;7.210;2022-11-25T16:41:53;6.80;99.90
56308;DHT22;42217;50.422;7.210;2022-11-25T16:44:19;6.70;99.90
56308;DHT22;42217;50.422;7.210;2022-11-25T16:46:47;6.60;99.90
56308;DHT22;42217;50.422;7.210;2022-11-25T16:49:15;6.60;99.90
56308;DHT22;42217;50.422;7.210;2022-11-25T16:51:41;6.60;99.90
56308;DHT22;42217;50.422;7.210;2022-11-25T16:54:07;6.60;99.90
56308;DHT22;42217;50.422;7.210;2022-11-25T16:56:38;6.60;99.90
56308;DHT22;42217;50.422;7.210;2022-11-25T16:59:04;6.70;99.90
56308;DHT22;42217;50.422;7.210;2022-11-25T17:01:31;6.80;99.90
56308;DHT22;42217;50.422;7.210;2022-11-25T17:03:57;6.80;99.90
56308;DHT22;42217;50.422;7.210;2022-11-25T17:06:25;7.00;99.90
56308;DHT22;42217;50.422;7.210;2022-11-25T17:08:51;7.10;99.90
56308;DHT22;42217;50.422;7.210;2022-11-25T17:11:29;7.10;99.90
56308;DHT22;42217;50.422;7.210;2022-11-25T17:13:59;7.10;99.90
56308;DHT22;42217;50.422;7.210;2022-11-25T17:16:28;7.20;99.90
56308;DHT22;42217;50.422;7.210;2022-11-25T17:18:56;7.30;99.90
56308;DHT22;42217;50.422;7.210;2022-11-25T17:21:23;7.30;99.90
56308;DHT22;42217;50.422;7.210;2022-11-25T17:24:12;7.30;99.90
56308;DHT22;42217;50.422;7.210;2022-11-25T17:26:40;7.40;99.90
56308;DHT22;42217;50.422;7.210;2022-11-25T17:29:12;7.50;99.90
56308;DHT22;42217;50.422;7.210;2022-11-25T17:31:39;7.60;99.90
56308;DHT22;42217;50.422;7.210;2022-11-25T17:34:05;7.70;99.90
56308;DHT22;42217;50.422;7.210;2022-11-25T17:36:31;7.80;99.90
56308;DHT22;42217;50.422;7.210;2022-11-25T17:38:57;7.80;99.90
56308;DHT22;42217;50.422;7.210;2022-11-25T17:41:23;7.90;99.90
56308;DHT22;42217;50.422;7.210;2022-11-25T17:43:53;7.90;99.90
56308;DHT22;42217;50.422;7.210;2022-11-25T17:46:19;7.90;99.90
56308;DHT22;42217;50.422;7.210;2022-11-25T17:48:45;7.90;99.90
56308;DHT22;42217;50.422;7.210;2022-11-25T17:51:13;7.90;99.90
56308;DHT22;42217;50.422;7.210;2022-11-25T17:53:39;8.00;99.90
56308;DHT22;42217;50.422;7.210;2022-11-25T17:58:45;8.20;99.90
56308;DHT22;42217;50.422;7.210;2022-11-25T18:01:10;8.20;99.90
56308;DHT22;42217;50.422;7.210;2022-11-25T18:03:36;8.30;99.90
56308;DHT22;42217;50.422;7.210;2022-11-25T18:06:02;8.30;99.90
56308;DHT22;42217;50.422;7.210;2022-11-25T18:08:29;8.20;99.90
56308;DHT22;42217;50.422;7.210;2022-11-25T18:10:54;8.20;99.90
56308;DHT22;42217;50.422;7.210;2022-11-25T18:13:21;8.20;99.90
56308;DHT22;42217;50.422;7.210;2022-11-25T18:15:46;8.30;99.90
56308;DHT22;42217;50.422;7.210;2022-11-25T18:18:19;8.30;99.90
56308;DHT22;42217;50.422;7.210;2022-11-25T18:20:45;8.40;99.90
56308;DHT22;42217;50.422;7.210;2022-11-25T18:23:11;8.50;99.90
56308;DHT22;42217;50.422;7.210;2022-11-25T18:25:39;8.50;99.90
56308;DHT22;42217;50.422;7.210;2022-11-25T18:28:05;8.50;99.90
56308;DHT22;42217;50.422;7.210;2022-11-25T18:30:33;8.50;99.90
56308;DHT22;42217;50.422;7.210;2022-11-25T18:33:00;8.50;99.90
56308;DHT22;42217;50.422;7.210;2022-11-25T18:35:33;8.50;99.90